Time;durP1;ratioP1;P1;durP2;ratioP2;P2;SDS_P1;SDS_P2;PMS_P1;PMS_P2;Temp;Humidity;BMP_temperature;BMP_pressure;BME280_temperature;BME280_humidity;BME280_pressure;Samples;Min_cycle;Max_cycle;Signal;HPM_P1;HPM_P2
2022/12/09 00:01:42;;;;;;;14.87;11.17;;;;;;;-1.29;96.62;95702.69;5052943;28;20184;-60
2022/12/09 00:04:08;;;;;;;13.33;11.23;;;;;;;-1.26;96.98;95692.84;5052845;28;20658;-60
2022/12/09 00:06:33;;;;;;;12.17;10.57;;;;;;;-1.11;96.33;95692.78;5052627;28;20185;-59
2022/12/09 00:08:58;;;;;;;12.03;10.83;;;;;;;-1.10;96.69;95696.16;5053583;28;20207;-61
2022/12/09 00:11:25;;;;;;;12.87;11.47;;;;;;;-1.08;96.06;95695.03;5053281;28;20499;-59
2022/12/09 00:13:56;;;;;;;14.67;11.67;;;;;;;-1.24;95.98;95687.53;5053261;28;20253;-60
2022/12/09 00:16:22;;;;;;;11.70;10.50;;;;;;;-1.46;96.88;95689.25;5053064;28;20551;-61
2022/12/09 00:18:48;;;;;;;11.97;9.50;;;;;;;-1.53;97.04;95679.84;5052881;28;20249;-61
2022/12/09 00:21:26;;;;;;;12.47;10.37;;;;;;;-1.41;96.65;95683.56;5052638;28;20206;-58
2022/12/09 00:23:53;;;;;;;11.77;10.20;;;;;;;-1.31;96.20;95684.06;5052991;28;20178;-61
2022/12/09 00:26:20;;;;;;;11.53;9.57;;;;;;;-1.28;95.93;95676.78;5052737;28;20185;-61
2022/12/09 00:28:48;;;;;;;11.47;10.27;;;;;;;-1.23;96.09;95681.41;5050575;28;20205;-62
2022/12/09 00:31:18;;;;;;;10.70;9.43;;;;;;;-1.33;96.14;95681.66;5052799;28;20185;-61
2022/12/09 00:33:44;;;;;;;10.93;9.80;;;;;;;-1.19;95.04;95674.91;5052728;28;20174;-61
2022/12/09 00:36:13;;;;;;;11.53;10.33;;;;;;;-1.28;95.62;95674.22;5038416;28;20230;-61
2022/12/09 00:38:39;;;;;;;10.57;9.53;;;;;;;-1.22;95.26;95674.47;5032910;28;20626;-60
2022/12/09 00:41:05;;;;;;;12.23;10.97;;;;;;;-1.31;95.59;95663.50;5032534;28;20222;-60
2022/12/09 00:43:31;;;;;;;12.43;10.67;;;;;;;-1.40;96.01;95669.75;5014675;28;20233;-60
2022/12/09 00:45:56;;;;;;;12.60;11.23;;;;;;;-1.28;95.61;95673.41;5032722;28;20232;-60
2022/12/09 00:48:22;;;;;;;11.57;10.37;;;;;;;-1.20;95.63;95673.31;5032781;28;20198;-60
2022/12/09 00:50:48;;;;;;;12.00;10.90;;;;;;;-1.27;94.94;95673.25;5032560;28;20536;-60
2022/12/09 00:53:14;;;;;;;12.20;11.10;;;;;;;-1.38;96.24;95671.13;5032834;28;20167;-60
2022/12/09 00:55:39;;;;;;;12.37;11.17;;;;;;;-1.38;95.69;95665.19;5031863;28;20244;-60
2022/12/09 00:58:05;;;;;;;12.20;11.13;;;;;;;-1.51;95.84;95662.50;5032036;28;20618;-60
2022/12/09 01:00:30;;;;;;;13.73;12.37;;;;;;;-1.44;96.05;95664.16;5032336;28;20346;-60
2022/12/09 01:02:56;;;;;;;11.87;10.70;;;;;;;-1.54;96.63;95666.19;5032257;28;20174;-60
2022/12/09 01:05:22;;;;;;;13.07;11.73;;;;;;;-1.56;96.59;95665.56;5031940;28;20662;-60
2022/12/09 01:07:47;;;;;;;11.77;10.67;;;;;;;-1.43;95.68;95670.88;5032202;28;20206;-60
2022/12/09 01:10:13;;;;;;;12.97;11.77;;;;;;;-1.39;95.64;95674.69;5031393;28;20167;-59
2022/12/09 01:12:39;;;;;;;13.23;11.23;;;;;;;-1.54;96.02;95666.19;5032303;28;20574;-59
2022/12/09 01:15:08;;;;;;;12.77;11.57;;;;;;;-1.68;97.77;95664.47;5032151;28;20541;-60
2022/12/09 01:17:35;;;;;;;12.50;11.40;;;;;;;-1.73;98.49;95662.41;5032080;28;20297;-60
2022/12/09 01:20:01;;;;;;;12.83;11.43;;;;;;;-1.81;99.96;95669.41;5032308;28;20198;-60
2022/12/09 01:22:27;;;;;;;11.00;9.97;;;;;;;-1.75;99.21;95666.94;5032342;28;20609;-60
2022/12/09 01:24:52;;;;;;;12.47;10.70;;;;;;;-1.70;99.40;95663.81;5031794;28;20178;-61
2022/12/09 01:27:18;;;;;;;11.23;10.13;;;;;;;-1.63;98.17;95659.59;5016111;28;20566;-61
2022/12/09 01:29:43;;;;;;;10.87;9.77;;;;;;;-1.73;99.21;95656.50;5032317;28;20228;-61
2022/12/09 01:32:09;;;;;;;13.43;10.30;;;;;;;-1.71;100.00;95660.47;5032076;28;20182;-60
2022/12/09 01:34:34;;;;;;;12.73;11.13;;;;;;;-1.59;100.00;95657.44;5032143;28;20549;-60
2022/12/09 01:36:59;;;;;;;12.57;11.10;;;;;;;-1.62;100.00;95653.47;5048406;28;20295;-60
2022/12/09 01:39:25;;;;;;;12.93;11.57;;;;;;;-1.71;100.00;95663.03;5051930;28;20209;-60
2022/12/09 01:41:50;;;;;;;11.80;10.60;;;;;;;-1.61;100.00;95664.53;5052021;28;20615;-60
2022/12/09 01:44:24;;;;;;;12.07;10.77;;;;;;;-1.67;100.00;95663.47;5034339;28;20262;-59
2022/12/09 01:46:57;;;;;;;11.93;10.40;;;;;;;-1.82;100.00;95660.09;5051704;28;20185;-60
2022/12/09 01:49:48;;;;;;;13.07;10.07;;;;;;;-1.80;100.00;95648.69;5033919;28;20198;-60
2022/12/09 01:52:22;;;;;;;12.83;11.27;;;;;;;-1.76;100.00;95649.13;5047062;28;20216;-60
2022/12/09 01:54:51;;;;;;;14.13;11.50;;;;;;;-1.69;100.00;95644.88;5033747;28;20227;-60
2022/12/09 01:57:16;;;;;;;12.47;11.17;;;;;;;-1.67;100.00;95652.41;5051481;28;20261;-57
2022/12/09 01:59:43;;;;;;;12.17;10.97;;;;;;;-1.70;100.00;95648.41;5051856;28;20285;-57
2022/12/09 02:02:15;;;;;;;11.67;10.43;;;;;;;-1.68;100.00;95646.47;5051986;28;20178;-60
2022/12/09 02:04:41;;;;;;;12.40;11.10;;;;;;;-1.76;100.00;95637.09;5051366;28;20174;-57
2022/12/09 02:07:09;;;;;;;12.83;11.17;;;;;;;-1.91;100.00;95633.75;5051217;28;20166;-61
2022/12/09 02:09:36;;;;;;;14.33;10.27;;;;;;;-1.92;100.00;95624.44;5051636;28;20212;-59
2022/12/09 02:12:13;;;;;;;13.00;11.60;;;;;;;-1.85;100.00;95615.06;5051562;28;20261;-59
2022/12/09 02:14:43;;;;;;;12.57;11.27;;;;;;;-2.01;100.00;95612.69;5051746;28;20627;-61
2022/12/09 02:17:19;;;;;;;14.07;12.00;;;;;;;-1.83;100.00;95609.72;5051782;28;20536;-61
2022/12/09 02:20:05;;;;;;;15.13;12.00;;;;;;;-1.97;100.00;95597.72;5051492;28;20193;-62
2022/12/09 02:22:37;;;;;;;11.73;10.57;;;;;;;-2.19;100.00;95602.75;5054092;28;20178;-61
2022/12/09 02:25:09;;;;;;;13.67;11.67;;;;;;;-2.35;100.00;95604.69;5055260;28;20542;-61
2022/12/09 02:28:11;;;;;;;15.90;11.43;;;;;;;-2.52;100.00;95599.72;5044342;28;20276;-61
2022/12/09 02:30:50;;;;;;;14.43;12.23;;;;;;;-2.40;100.00;95604.44;5047395;28;20233;-61
2022/12/09 02:33:38;;;;;;;17.77;12.30;;;;;;;-2.19;100.00;95607.91;5043952;28;20182;-61
2022/12/09 02:36:10;;;;;;;15.00;11.63;;;;;;;-2.25;100.00;95598.34;5052698;28;20268;-61
2022/12/09 02:38:39;;;;;;;14.10;11.47;;;;;;;-2.13;100.00;95609.75;5054940;28;20237;-61
2022/12/09 02:41:23;;;;;;;17.17;12.43;;;;;;;-2.05;100.00;95601.16;5054359;28;20190;-63
2022/12/09 02:44:14;;;;;;;14.80;13.13;;;;;;;-2.26;100.00;95601.06;5054979;28;20177;-60
2022/12/09 02:46:41;;;;;;;13.47;11.37;;;;;;;-2.37;100.00;95612.56;5054608;28;20201;-61
2022/12/09 02:49:07;;;;;;;14.33;11.73;;;;;;;-2.30;100.00;95604.97;5054892;28;20206;-61
2022/12/09 02:51:35;;;;;;;14.13;12.63;;;;;;;-2.32;100.00;95592.31;5054643;28;20658;-58
2022/12/09 02:54:16;;;;;;;15.87;13.67;;;;;;;-2.39;100.00;95581.16;5055047;28;20178;-61
2022/12/09 02:56:50;;;;;;;15.47;13.43;;;;;;;-2.32;100.00;95576.91;5054021;28;20277;-61
2022/12/09 02:59:15;;;;;;;16.87;13.50;;;;;;;-2.18;100.00;95577.91;5054833;28;20197;-61
2022/12/09 03:01:59;;;;;;;16.53;12.30;;;;;;;-2.31;100.00;95570.03;5054807;28;20650;-61
2022/12/09 03:04:27;;;;;;;14.20;12.13;;;;;;;-2.26;100.00;95572.84;5054177;28;20202;-61
2022/12/09 03:06:56;;;;;;;16.33;12.80;;;;;;;-2.31;100.00;95570.81;5036421;28;20276;-60
2022/12/09 03:09:27;;;;;;;18.47;13.93;;;;;;;-2.43;100.00;95567.09;5054231;28;20233;-60
2022/12/09 03:11:54;;;;;;;17.07;13.03;;;;;;;-2.33;100.00;95561.69;5054256;28;20178;-61
2022/12/09 03:14:36;;;;;;;16.17;12.40;;;;;;;-2.35;100.00;95563.66;5054200;28;20257;-58
2022/12/09 03:17:12;;;;;;;14.23;12.40;;;;;;;-2.38;100.00;95554.53;5054382;28;20261;-60
2022/12/09 03:19:59;;;;;;;14.70;12.50;;;;;;;-2.46;100.00;95549.50;5016632;28;20663;-60
2022/12/09 03:22:28;;;;;;;14.43;12.30;;;;;;;-2.41;100.00;95544.63;5047940;28;20688;-57
2022/12/09 03:24:59;;;;;;;14.67;12.20;;;;;;;-2.43;100.00;95544.00;5053464;28;20220;-57
2022/12/09 03:27:30;;;;;;;12.73;11.40;;;;;;;-2.46;100.00;95538.44;5053512;28;20200;-60
2022/12/09 03:29:59;;;;;;;14.80;11.73;;;;;;;-2.45;100.00;95545.16;5051975;28;20265;-56
2022/12/09 03:32:27;;;;;;;12.17;10.60;;;;;;;-2.38;100.00;95551.16;5053615;28;20185;-60
2022/12/09 03:35:01;;;;;;;15.77;12.20;;;;;;;-2.46;100.00;95553.84;5032864;28;20248;-61
2022/12/09 03:37:27;;;;;;;13.70;12.23;;;;;;;-2.49;100.00;95549.84;5053448;28;20252;-60
2022/12/09 03:39:55;;;;;;;17.33;12.30;;;;;;;-2.53;100.00;95546.03;5054128;28;20603;-60
2022/12/09 03:42:28;;;;;;;14.67;11.97;;;;;;;-2.48;100.00;95543.75;5053954;28;20182;-60
2022/12/09 03:44:56;;;;;;;13.13;11.17;;;;;;;-2.51;100.00;95533.84;5053626;28;20178;-60
2022/12/09 03:47:21;;;;;;;13.67;11.60;;;;;;;-2.49;100.00;95542.16;5053756;28;20189;-60
2022/12/09 03:49:47;;;;;;;13.83;11.57;;;;;;;-2.23;100.00;95526.31;5054036;28;20242;-60
2022/12/09 03:52:40;;;;;;;12.10;10.80;;;;;;;-2.16;100.00;95535.69;5054053;28;20555;-61
2022/12/09 03:55:29;;;;;;;12.63;11.30;;;;;;;-2.12;100.00;95529.19;5046984;28;20186;-60
2022/12/09 03:57:58;;;;;;;13.53;11.40;;;;;;;-2.25;100.00;95535.97;5040750;28;20206;-61
2022/12/09 04:00:24;;;;;;;14.43;10.83;;;;;;;-2.31;100.00;95545.16;5053859;28;20210;-59
2022/12/09 04:02:53;;;;;;;13.17;11.80;;;;;;;-2.35;100.00;95541.38;5030832;23;20243;-61
2022/12/09 04:05:18;;;;;;;12.13;10.93;;;;;;;-2.29;100.00;95542.44;5014127;28;20180;-61
2022/12/09 04:07:44;;;;;;;12.47;10.70;;;;;;;-2.27;100.00;95538.69;5014148;28;20623;-57
2022/12/09 04:10:10;;;;;;;12.00;9.97;;;;;;;-2.13;100.00;95537.91;5018184;28;20220;-57
2022/12/09 04:12:35;;;;;;;11.53;10.33;;;;;;;-2.12;100.00;95531.00;5018160;28;20182;-63
2022/12/09 04:15:00;;;;;;;11.27;10.27;;;;;;;-1.92;100.00;95521.75;5030292;28;20308;-61
2022/12/09 04:17:26;;;;;;;13.20;11.73;;;;;;;-1.86;100.00;95518.47;5015455;28;20215;-61
2022/12/09 04:19:51;;;;;;;11.30;10.13;;;;;;;-1.85;100.00;95525.19;5014009;28;20203;-60
2022/12/09 04:22:17;;;;;;;12.10;9.97;;;;;;;-2.00;100.00;95524.41;5013899;28;20172;-61
2022/12/09 04:24:42;;;;;;;11.60;10.10;;;;;;;-1.94;100.00;95520.31;5026447;28;20182;-59
2022/12/09 04:27:10;;;;;;;11.30;9.73;;;;;;;-1.95;100.00;95514.41;5033159;28;20186;-60
2022/12/09 04:29:35;;;;;;;11.97;9.40;;;;;;;-1.96;100.00;95510.25;5024459;28;20624;-60
2022/12/09 04:32:02;;;;;;;10.90;9.80;;;;;;;-1.85;100.00;95504.66;5013416;28;20262;-61
2022/12/09 04:34:28;;;;;;;11.00;9.73;;;;;;;-1.96;100.00;95497.44;5024818;28;20197;-60
2022/12/09 04:36:53;;;;;;;12.07;9.60;;;;;;;-1.97;100.00;95492.47;5032901;28;20178;-61
2022/12/09 04:39:19;;;;;;;11.83;9.33;;;;;;;-1.98;100.00;95496.81;5032377;28;20210;-59
2022/12/09 04:41:44;;;;;;;11.27;10.17;;;;;;;-2.01;100.00;95481.78;5032886;28;20252;-60
2022/12/09 04:44:09;;;;;;;10.80;9.70;;;;;;;-1.97;100.00;95477.06;5023787;28;20191;-60
2022/12/09 04:46:36;;;;;;;11.47;10.10;;;;;;;-1.98;100.00;95476.25;5013167;28;20188;-60
2022/12/09 04:49:02;;;;;;;13.10;10.60;;;;;;;-2.12;100.00;95472.75;5031118;28;20207;-60
2022/12/09 04:51:27;;;;;;;12.63;10.33;;;;;;;-2.05;100.00;95467.69;5031603;28;20178;-59
2022/12/09 04:53:53;;;;;;;12.03;10.20;;;;;;;-1.99;100.00;95469.53;5015569;28;20191;-60
2022/12/09 04:56:20;;;;;;;12.23;10.47;;;;;;;-2.04;100.00;95471.84;5031747;28;20174;-57
2022/12/09 04:58:47;;;;;;;11.80;10.60;;;;;;;-2.09;100.00;95466.47;5035557;28;20206;-55
2022/12/09 05:01:15;;;;;;;13.33;11.13;;;;;;;-2.07;100.00;95464.53;5027809;28;20310;-62
2022/12/09 05:03:40;;;;;;;11.47;10.27;;;;;;;-2.22;100.00;95461.19;5013195;28;20217;-64
2022/12/09 05:06:10;;;;;;;11.83;10.63;;;;;;;-2.18;100.00;95452.97;5032435;28;20175;-61
2022/12/09 05:08:35;;;;;;;13.40;11.57;;;;;;;-2.24;100.00;95455.44;5032456;28;20202;-61
2022/12/09 05:11:01;;;;;;;11.67;10.50;;;;;;;-2.17;100.00;95448.59;5032669;28;20177;-61
2022/12/09 05:13:27;;;;;;;12.83;11.00;;;;;;;-2.13;100.00;95450.66;5018732;28;20183;-61
2022/12/09 05:15:57;;;;;;;13.23;11.03;;;;;;;-2.19;100.00;95451.38;5029788;28;20179;-61
2022/12/09 05:18:23;;;;;;;12.80;11.20;;;;;;;-2.35;100.00;95458.47;5024635;28;20662;-60
2022/12/09 05:20:48;;;;;;;13.50;11.47;;;;;;;-2.42;100.00;95452.47;5012803;28;20231;-61
2022/12/09 05:23:14;;;;;;;14.63;11.83;;;;;;;-2.25;100.00;95453.84;5012641;28;20643;-58
2022/12/09 05:25:39;;;;;;;14.07;12.43;;;;;;;-2.22;100.00;95454.28;5029515;28;20300;-59
2022/12/09 05:28:04;;;;;;;16.20;12.80;;;;;;;-2.22;100.00;95448.34;5032003;28;20234;-60
2022/12/09 05:30:30;;;;;;;16.43;12.07;;;;;;;-2.15;100.00;95452.59;5020277;28;20179;-61
2022/12/09 05:32:55;;;;;;;14.30;12.33;;;;;;;-2.21;100.00;95452.50;5017927;28;20191;-59
2022/12/09 05:35:21;;;;;;;14.63;11.93;;;;;;;-2.26;100.00;95449.69;5029131;28;20179;-60
2022/12/09 05:37:46;;;;;;;13.97;12.27;;;;;;;-2.30;100.00;95448.47;5032020;28;20198;-61
2022/12/09 05:40:12;;;;;;;15.33;12.50;;;;;;;-2.16;100.00;95443.28;5032000;28;20208;-60
2022/12/09 05:42:37;;;;;;;17.57;12.27;;;;;;;-2.18;100.00;95431.63;5014367;28;20208;-60
2022/12/09 05:45:03;;;;;;;13.90;12.50;;;;;;;-2.17;100.00;95436.56;5029925;28;20166;-60
2022/12/09 05:47:29;;;;;;;15.87;12.53;;;;;;;-2.22;100.00;95426.06;5031372;28;20213;-60
2022/12/09 05:49:54;;;;;;;15.40;12.63;;;;;;;-2.24;100.00;95430.59;4999948;28;20187;-59
2022/12/09 05:52:19;;;;;;;13.87;11.73;;;;;;;-2.17;100.00;95430.63;4994685;28;20188;-62
2022/12/09 05:54:45;;;;;;;17.57;11.70;;;;;;;-2.11;100.00;95435.03;5012447;28;20179;-60
2022/12/09 05:57:10;;;;;;;13.80;12.27;;;;;;;-2.04;100.00;95423.09;5014641;28;21014;-61
2022/12/09 05:59:36;;;;;;;16.13;13.27;;;;;;;-2.19;100.00;95424.91;5016017;28;20199;-62
2022/12/09 06:02:01;;;;;;;14.00;12.50;;;;;;;-2.10;100.00;95424.59;5020510;28;20300;-60
2022/12/09 06:04:26;;;;;;;16.07;14.37;;;;;;;-2.08;100.00;95421.06;5025587;28;20307;-60
2022/12/09 06:06:52;;;;;;;15.47;13.97;;;;;;;-2.05;100.00;95423.25;5015957;28;20194;-60
2022/12/09 06:09:17;;;;;;;16.00;13.67;;;;;;;-2.06;100.00;95422.47;5016914;28;20215;-55
2022/12/09 06:11:43;;;;;;;17.67;12.53;;;;;;;-2.02;100.00;95423.72;5019774;28;20181;-61
2022/12/09 06:14:10;;;;;;;13.30;11.83;;;;;;;-1.93;100.00;95404.63;5028488;28;20203;-61
2022/12/09 06:16:36;;;;;;;14.83;12.47;;;;;;;-2.04;100.00;95410.25;5015826;28;20278;-61
2022/12/09 06:19:01;;;;;;;16.47;13.33;;;;;;;-1.99;100.00;95410.50;5015923;28;20207;-61
2022/12/09 06:21:27;;;;;;;13.43;12.03;;;;;;;-1.94;100.00;95404.81;5015582;28;20741;-61
2022/12/09 06:23:52;;;;;;;14.97;13.37;;;;;;;-2.04;100.00;95407.69;5019651;28;20181;-61
2022/12/09 06:26:23;;;;;;;14.33;11.80;;;;;;;-2.06;100.00;95408.84;5027866;28;20266;-61
2022/12/09 06:28:49;;;;;;;14.47;12.23;;;;;;;-1.99;100.00;95410.50;5013488;28;20206;-61
2022/12/09 06:31:15;;;;;;;13.93;12.40;;;;;;;-1.99;100.00;95405.38;5015506;28;20194;-61
2022/12/09 06:33:41;;;;;;;14.23;11.50;;;;;;;-1.88;100.00;95404.88;5016569;28;20187;-61
2022/12/09 06:36:07;;;;;;;13.73;12.03;;;;;;;-1.98;100.00;95406.16;5015612;28;20186;-63
2022/12/09 06:38:33;;;;;;;17.13;12.73;;;;;;;-1.98;100.00;95401.81;5025271;28;20221;-61
2022/12/09 06:40:58;;;;;;;18.50;13.17;;;;;;;-1.91;100.00;95399.31;5017230;28;20199;-61
2022/12/09 06:43:23;;;;;;;17.80;13.33;;;;;;;-1.99;100.00;95407.13;5018732;28;20561;-61
2022/12/09 06:45:49;;;;;;;17.40;12.70;;;;;;;-2.01;100.00;95409.09;5034951;28;20577;-62
2022/12/09 06:48:14;;;;;;;17.27;12.27;;;;;;;-2.00;100.00;95408.09;5035006;28;20582;-61
2022/12/09 06:50:40;;;;;;;18.20;13.07;;;;;;;-1.89;100.00;95408.41;5025970;28;20171;-63
2022/12/09 06:53:05;;;;;;;14.93;12.13;;;;;;;-1.80;100.00;95409.91;5032109;28;20190;-58
2022/12/09 06:55:31;;;;;;;14.40;12.40;;;;;;;-1.65;100.00;95407.25;5020314;28;20210;-58
2022/12/09 06:57:58;;;;;;;14.57;12.77;;;;;;;-1.79;100.00;95410.69;5016786;28;20203;-57
2022/12/09 07:00:24;;;;;;;16.87;12.17;;;;;;;-1.90;100.00;95409.41;5015409;28;20238;-60
2022/12/09 07:02:49;;;;;;;15.47;12.30;;;;;;;-1.83;100.00;95412.81;5026634;28;20235;-53
2022/12/09 07:05:15;;;;;;;15.90;12.60;;;;;;;-1.56;100.00;95415.63;5034192;28;20189;-58
2022/12/09 07:07:40;;;;;;;15.33;13.10;;;;;;;-1.68;100.00;95399.94;5025480;28;20207;-57
2022/12/09 07:10:07;;;;;;;16.57;12.97;;;;;;;-1.71;100.00;95402.84;5014556;28;20638;-59
2022/12/09 07:12:32;;;;;;;17.23;15.43;;;;;;;-1.50;100.00;95397.69;5026600;28;20693;-54
2022/12/09 07:14:58;;;;;;;18.07;14.10;;;;;;;-1.55;100.00;95397.44;5034560;28;20171;-57
2022/12/09 07:17:23;;;;;;;16.20;13.27;;;;;;;-1.33;100.00;95396.44;5034191;28;20638;-54
2022/12/09 07:19:49;;;;;;;14.27;12.73;;;;;;;-1.45;100.00;95394.59;5032647;28;20206;-54
2022/12/09 07:22:14;;;;;;;16.00;13.73;;;;;;;-1.23;100.00;95390.19;5034276;28;20187;-59
2022/12/09 07:24:40;;;;;;;15.70;13.07;;;;;;;-1.35;100.00;95392.47;5028716;28;20167;-54
2022/12/09 07:27:08;;;;;;;17.87;12.53;;;;;;;-1.28;100.00;95393.28;5015005;28;20185;-58
2022/12/09 07:29:35;;;;;;;17.67;13.50;;;;;;;-1.33;100.00;95396.44;5025523;28;20187;-59
2022/12/09 07:32:00;;;;;;;16.67;13.20;;;;;;;-1.44;100.00;95398.72;5023131;28;20278;-66
2022/12/09 07:34:26;;;;;;;15.70;12.77;;;;;;;-1.49;100.00;95398.47;4997368;28;20266;-59
2022/12/09 07:36:52;;;;;;;19.43;12.03;;;;;;;-1.29;100.00;95399.44;5014703;28;20241;-61
2022/12/09 07:39:18;;;;;;;15.63;13.97;;;;;;;-1.36;100.00;95396.03;5024464;28;20210;-58
2022/12/09 07:41:44;;;;;;;15.33;12.40;;;;;;;-1.32;100.00;95394.66;5034019;28;20240;-57
2022/12/09 07:44:10;;;;;;;15.60;13.30;;;;;;;-1.19;100.00;95399.09;5020860;28;20580;-54
2022/12/09 07:46:37;;;;;;;14.83;12.33;;;;;;;-1.29;100.00;95395.09;4997000;28;20171;-56
2022/12/09 07:49:04;;;;;;;20.33;13.67;;;;;;;-1.34;100.00;95383.78;5022280;28;20297;-55
2022/12/09 07:51:30;;;;;;;16.13;12.43;;;;;;;-1.47;100.00;95389.63;5026492;28;20214;-57
2022/12/09 07:53:56;;;;;;;16.20;12.63;;;;;;;-1.27;100.00;95393.13;5017289;28;20207;-57
2022/12/09 07:56:22;;;;;;;16.80;12.90;;;;;;;-1.19;100.00;95394.75;5032037;28;20298;-58
2022/12/09 07:58:51;;;;;;;18.00;13.90;;;;;;;-1.18;100.00;95391.22;5029085;28;20249;-52
2022/12/09 08:01:20;;;;;;;16.10;12.93;;;;;;;-1.26;100.00;95392.13;5016344;28;20322;-58
2022/12/09 08:03:46;;;;;;;18.17;14.23;;;;;;;-1.29;100.00;95389.16;5003299;28;20179;-57
2022/12/09 08:06:18;;;;;;;16.43;14.30;;;;;;;-1.02;100.00;95383.19;5014422;28;20568;-58
2022/12/09 08:08:43;;;;;;;16.67;12.60;;;;;;;-0.92;100.00;95388.78;5014198;28;20203;-54
2022/12/09 08:11:12;;;;;;;16.83;12.90;;;;;;;-0.82;100.00;95378.16;5014797;28;20175;-52
2022/12/09 08:13:38;;;;;;;18.03;13.20;;;;;;;-1.05;100.00;95381.00;5015068;28;20242;-58
2022/12/09 08:16:05;;;;;;;17.73;13.80;;;;;;;-0.71;100.00;95385.31;5013845;28;20631;-56
2022/12/09 08:18:32;;;;;;;15.10;12.83;;;;;;;-0.59;100.00;95381.22;5013647;28;20203;-59
2022/12/09 08:20:58;;;;;;;18.27;14.87;;;;;;;-0.52;99.36;95382.06;5032928;28;20199;-56
2022/12/09 08:23:24;;;;;;;22.23;15.53;;;;;;;-0.63;100.00;95376.66;5017906;28;20229;-54
2022/12/09 08:25:55;;;;;;;16.57;14.07;;;;;;;-0.50;99.44;95374.91;5013521;28;20630;-58
2022/12/09 08:28:21;;;;;;;16.40;13.23;;;;;;;-0.33;98.54;95377.16;5016731;28;20238;-58
2022/12/09 08:30:48;;;;;;;16.73;13.87;;;;;;;-0.50;98.54;95381.84;5028487;28;20171;-58
2022/12/09 08:33:13;;;;;;;17.00;13.77;;;;;;;-0.49;98.89;95368.78;5028670;28;20193;-58
2022/12/09 08:35:39;;;;;;;17.70;14.43;;;;;;;-0.77;99.99;95369.84;5032670;28;20175;-55
2022/12/09 08:38:04;;;;;;;15.60;13.40;;;;;;;-0.50;100.00;95362.06;5032582;28;20210;-58
2022/12/09 08:40:30;;;;;;;19.13;14.83;;;;;;;-0.32;98.92;95364.09;5032504;28;20740;-57
2022/12/09 08:42:55;;;;;;;17.10;13.03;;;;;;;-0.40;99.12;95358.34;5019882;28;20183;-59
2022/12/09 08:45:21;;;;;;;16.57;13.10;;;;;;;-0.49;99.79;95360.28;5013259;28;20179;-55
2022/12/09 08:47:46;;;;;;;15.70;12.90;;;;;;;-0.36;99.75;95355.19;5013354;28;20227;-59
2022/12/09 08:50:12;;;;;;;17.30;13.63;;;;;;;-0.49;100.00;95366.22;5013712;28;20202;-58
2022/12/09 08:52:37;;;;;;;20.70;14.83;;;;;;;-0.62;100.00;95363.63;5023326;28;20238;-59
2022/12/09 08:55:03;;;;;;;17.23;13.83;;;;;;;-0.51;100.00;95352.78;5003044;28;20202;-58
2022/12/09 08:57:29;;;;;;;16.93;14.83;;;;;;;-0.58;100.00;95357.09;5005019;28;20655;-57
2022/12/09 08:59:54;;;;;;;21.97;15.17;;;;;;;-0.63;100.00;95351.72;5023008;28;20221;-59
2022/12/09 09:02:20;;;;;;;22.00;15.60;;;;;;;-0.71;100.00;95346.75;5016455;28;20240;-60
2022/12/09 09:04:45;;;;;;;19.33;15.07;;;;;;;-0.85;100.00;95351.06;5015130;28;20187;-58
2022/12/09 09:07:11;;;;;;;17.83;14.70;;;;;;;-0.86;100.00;95356.38;5032326;28;20648;-58
2022/12/09 09:09:37;;;;;;;21.13;15.40;;;;;;;-0.67;100.00;95344.59;5025200;28;20183;-63
2022/12/09 09:12:02;;;;;;;18.00;15.23;;;;;;;-0.92;100.00;95339.94;5024543;28;20542;-62
2022/12/09 09:14:28;;;;;;;19.63;14.43;;;;;;;-1.08;100.00;95345.41;5015314;28;20717;-64
2022/12/09 09:16:53;;;;;;;18.10;15.40;;;;;;;-1.03;100.00;95352.53;5015061;28;20187;-65
2022/12/09 09:19:24;;;;;;;19.47;15.30;;;;;;;-0.89;100.00;95349.03;5013047;28;20199;-63
2022/12/09 09:21:50;;;;;;;21.87;15.50;;;;;;;-0.72;100.00;95359.78;5013083;28;20199;-62
2022/12/09 09:24:17;;;;;;;18.93;16.93;;;;;;;-0.49;100.00;95358.50;5014668;28;20346;-62
2022/12/09 09:26:43;;;;;;;20.30;14.70;;;;;;;-0.52;100.00;95351.19;5027597;28;20262;-64
2022/12/09 09:29:14;;;;;;;19.60;15.53;;;;;;;-0.43;100.00;95351.78;5020691;28;20210;-63
2022/12/09 09:31:39;;;;;;;17.57;14.97;;;;;;;-0.32;100.00;95353.00;5007427;28;20183;-62
2022/12/09 09:34:05;;;;;;;21.10;15.43;;;;;;;-0.19;100.00;95348.69;5017382;28;20315;-62
2022/12/09 09:36:30;;;;;;;18.13;15.10;;;;;;;-0.37;100.00;95348.44;5035334;28;20182;-62
2022/12/09 09:38:57;;;;;;;19.60;15.67;;;;;;;-0.38;100.00;95344.28;5036248;28;20658;-63
2022/12/09 09:41:55;;;;;;;18.13;15.80;;;;;;;-0.34;100.00;95345.50;5036313;28;20198;-63
2022/12/09 09:44:38;;;;;;;20.73;16.27;;;;;;;0.13;100.00;95349.72;5034565;28;20179;-60
2022/12/09 09:47:42;;;;;;;18.37;15.87;;;;;;;-0.14;100.00;95336.03;5036374;28;20265;-58
2022/12/09 09:50:27;;;;;;;20.47;16.33;;;;;;;-0.04;100.00;95336.44;5036195;28;20547;-60
2022/12/09 09:52:53;;;;;;;18.73;14.83;;;;;;;-0.24;100.00;95333.03;5036054;28;20178;-61
2022/12/09 09:55:34;;;;;;;18.83;15.37;;;;;;;-0.35;100.00;95333.59;5021541;28;20191;-60
2022/12/09 09:58:14;;;;;;;20.97;15.93;;;;;;;-0.49;100.00;95332.78;5005093;28;20213;-61
2022/12/09 10:03:34;;;;;;;19.67;16.30;;;;;;;-0.30;100.00;95328.66;5013992;28;20231;-61
2022/12/09 10:06:32;;;;;;;20.77;18.00;;;;;;;-0.24;100.00;95334.81;5000203;28;20285;-61
2022/12/09 10:09:09;;;;;;;23.00;16.40;;;;;;;-0.12;100.00;95325.53;5014329;28;20533;-60
2022/12/09 10:12:06;;;;;;;19.70;16.73;;;;;;;-0.18;100.00;95321.16;5016602;28;20182;-61
2022/12/09 10:14:47;;;;;;;21.17;15.70;;;;;;;-0.14;100.00;95315.44;4977487;28;20615;-60
2022/12/09 10:17:22;;;;;;;21.37;16.53;;;;;;;-0.16;100.00;95306.28;5035348;28;20635;-61
2022/12/09 10:19:52;;;;;;;23.23;17.40;;;;;;;-0.18;100.00;95306.50;5018484;28;20293;-60
2022/12/09 10:22:25;;;;;;;18.47;16.47;;;;;;;-0.02;100.00;95310.50;5018617;28;20179;-60
2022/12/09 10:24:58;;;;;;;22.40;15.80;;;;;;;0.15;100.00;95308.31;5029870;28;20182;-61
2022/12/09 10:27:37;;;;;;;19.17;15.13;;;;;;;0.14;100.00;95304.16;5024493;28;20198;-62
2022/12/09 10:30:05;;;;;;;18.23;15.10;;;;;;;0.05;100.00;95321.59;5015876;28;20171;-63
2022/12/09 10:32:34;;;;;;;21.70;16.90;;;;;;;0.30;100.00;95307.13;5033663;28;20222;-62
2022/12/09 10:35:10;;;;;;;19.67;16.17;;;;;;;0.12;100.00;95309.50;5035573;28;20170;-62
2022/12/09 10:37:36;;;;;;;19.30;15.77;;;;;;;0.17;100.00;95314.84;5017715;28;20497;-62
2022/12/09 10:40:11;;;;;;;18.17;15.50;;;;;;;-0.01;100.00;95309.50;5035189;28;20206;-61
2022/12/09 10:45:30;;;;;;;21.67;17.27;;;;;;;0.07;100.00;95286.13;5032342;28;20232;-61
2022/12/09 10:47:56;;;;;;;21.57;17.60;;;;;;;0.03;100.00;95281.56;5015669;28;20233;-61
2022/12/09 10:50:30;;;;;;;22.17;15.93;;;;;;;0.04;100.00;95286.53;5031966;28;20623;-63
2022/12/09 10:53:01;;;;;;;20.00;15.67;;;;;;;-0.09;100.00;95284.72;5014683;28;20187;-61
2022/12/09 10:55:35;;;;;;;23.60;15.57;;;;;;;-0.14;100.00;95291.47;5015500;28;20254;-59
2022/12/09 10:58:30;;;;;;;22.53;16.87;;;;;;;-0.20;100.00;95287.09;5031131;28;20557;-61
2022/12/09 11:01:00;;;;;;;22.17;16.53;;;;;;;-0.28;100.00;95280.34;5005425;28;20703;-63
2022/12/09 11:03:49;;;;;;;22.23;16.87;;;;;;;-0.30;100.00;95279.75;5018972;28;20175;-63
2022/12/09 11:06:27;;;;;;;22.93;18.00;;;;;;;-0.31;100.00;95283.31;5034865;28;20205;-60
2022/12/09 11:08:54;;;;;;;23.20;17.80;;;;;;;-0.28;100.00;95282.91;5034545;28;20212;-60
2022/12/09 11:11:47;;;;;;;25.17;17.03;;;;;;;-0.22;100.00;95279.56;5032164;28;20583;-61
2022/12/09 11:14:24;;;;;;;21.20;16.50;;;;;;;-0.04;100.00;95274.63;5015087;28;20179;-59
2022/12/09 11:16:56;;;;;;;22.73;16.87;;;;;;;-0.01;100.00;95268.31;5029334;28;20642;-61
2022/12/09 11:19:34;;;;;;;26.03;17.87;;;;;;;-0.10;100.00;95267.69;5034510;28;20215;-59
2022/12/09 11:22:37;;;;;;;23.60;17.67;;;;;;;0.24;100.00;95271.84;5013506;28;20189;-59
2022/12/09 11:25:25;;;;;;;22.43;16.80;;;;;;;0.15;100.00;95270.47;5010146;28;20232;-59
2022/12/09 11:27:52;;;;;;;22.73;17.53;;;;;;;0.10;100.00;95274.63;5011593;28;20207;-59